This is the latest recevied weather packets stored in our database for station/object OM4MO-10. If no packets are shown the sender has not sent any weather packets the latest 10 day(s).
| Time | Temp. | Humidity | Pressure | Rain* | Wind** | Luminosity | Snow |
|---|---|---|---|---|---|---|---|
| 1777480237 | 10.56° C | 34% | 1036.2 hPa | - | - | - | - |
| 1777479037 | 11.11° C | 34% | 1036.2 hPa | - | - | - | - |
| 1777477837 | 11.67° C | 32% | 1036.8 hPa | - | - | - | - |
| 1777476637 | 11.67° C | 33% | 1035.8 hPa | - | - | - | - |
| 1777475437 | 12.22° C | 34% | 1035.9 hPa | - | - | - | - |
| 1777474237 | 12.22° C | 33% | 1036.5 hPa | - | - | - | - |
| 1777473037 | 11.67° C | 33% | 1036.4 hPa | - | - | - | - |
| 1777471837 | 13.33° C | 33% | 1036.4 hPa | - | - | - | - |
| 1777470636 | 13.89° C | 33% | 1037 hPa | - | - | - | - |
| 1777469436 | 14.44° C | 31% | 1038.1 hPa | - | - | - | - |
| 1777468236 | 14.44° C | 30% | 1038.2 hPa | - | - | - | - |
| 1777467036 | 13.33° C | 34% | 1036 hPa | - | - | - | - |
| 1777465836 | 13.89° C | 31% | 1037.3 hPa | - | - | - | - |
| 1777464636 | 13.89° C | 28% | 1039.2 hPa | - | - | - | - |
| 1777463436 | 15° C | 32% | 1037.6 hPa | - | - | - | - |
| 1777462236 | 14.44° C | 30% | 1038.4 hPa | - | - | - | - |
| 1777461036 | 14.44° C | 30% | 1038.5 hPa | - | - | - | - |
| 1777459835 | 13.33° C | 28% | 1039.2 hPa | - | - | - | - |
| 1777458635 | 13.33° C | 29% | 1038.6 hPa | - | - | - | - |
| 1777457435 | 12.78° C | 30% | 1038.4 hPa | - | - | - | - |
| 1777456235 | 12.78° C | 34% | 1036.7 hPa | - | - | - | - |
| 1777455035 | 11.67° C | 30% | 1038.8 hPa | - | - | - | - |
| 1777453835 | 12.22° C | 29% | 1039.2 hPa | - | - | - | - |
| 1777452635 | 11.67° C | 29% | 1038.9 hPa | - | - | - | - |
| 1777451435 | 11.67° C | 35% | 1035.4 hPa | - | - | - | - |
* Rain since midnight (hover to see other rain measurements)
** Current wind speed in m/s (hover to see current wind gust speed)